SAS710 ESSA-EFHK
Flight info
| Callsign | SAS710 |
|---|---|
| Flight time | 0h 51m |
| Altitude | 31000 |
| Route | TOVRI N851 RIKUM DCT RIRIP |
| Aircraft | A20N/M-SDE2E3FGHIRWXY/LB1 |
Departure
| Time | 2026-04-26 10:12 |
|---|---|
| Airport | Stockholm-Arlanda Airport (ESSA) |
Arrival
| Time | 2026-04-26 11:03 |
|---|---|
| Airport | Helsinki Vantaa Airport (EFHK) |
| Time | Latitude | Longitude | Altitude | Speed | Heading |
|---|---|---|---|---|---|
| 2026-04-26 09:52 | 59.65138 | 17.92810 | 141 ft | 0 kts | 191° |
| 2026-04-26 10:01 | 59.65149 | 17.92814 | 141 ft | 2 kts | 193° |
| 2026-04-26 10:01 | 59.65165 | 17.92822 | 141 ft | 2 kts | 196° |
| 2026-04-26 10:02 | 59.65181 | 17.92832 | 141 ft | 2 kts | 202° |
| 2026-04-26 10:02 | 59.65195 | 17.92848 | 141 ft | 2 kts | 223° |
| 2026-04-26 10:02 | 59.65200 | 17.92876 | 141 ft | 2 kts | 296° |
| 2026-04-26 10:02 | 59.65198 | 17.92884 | 141 ft | 0 kts | 305° |
| 2026-04-26 10:05 | 59.65199 | 17.92881 | 141 ft | 1 kts | 305° |
| 2026-04-26 10:06 | 59.65207 | 17.92847 | 141 ft | 4 kts | 291° |
| 2026-04-26 10:06 | 59.65222 | 17.92773 | 141 ft | 8 kts | 291° |
| 2026-04-26 10:06 | 59.65244 | 17.92654 | 141 ft | 11 kts | 290° |
| 2026-04-26 10:06 | 59.65274 | 17.92497 | 141 ft | 14 kts | 291° |
| 2026-04-26 10:07 | 59.65305 | 17.92305 | 141 ft | 13 kts | 269° |
| 2026-04-26 10:07 | 59.65262 | 17.92239 | 141 ft | 9 kts | 192° |
| 2026-04-26 10:07 | 59.65178 | 17.92210 | 141 ft | 16 kts | 190° |
| 2026-04-26 10:07 | 59.65052 | 17.92163 | 141 ft | 20 kts | 191° |
| 2026-04-26 10:08 | 59.64913 | 17.92112 | 141 ft | 21 kts | 189° |
| 2026-04-26 10:08 | 59.64771 | 17.92065 | 141 ft | 21 kts | 191° |
| 2026-04-26 10:08 | 59.64625 | 17.92007 | 141 ft | 21 kts | 191° |
| 2026-04-26 10:08 | 59.64489 | 17.91959 | 141 ft | 17 kts | 189° |
| 2026-04-26 10:09 | 59.64406 | 17.91911 | 141 ft | 4 kts | 240° |
| 2026-04-26 10:09 | 59.64406 | 17.91888 | 141 ft | 0 kts | 273° |
| 2026-04-26 10:09 | 59.64406 | 17.91886 | 141 ft | 1 kts | 273° |
| 2026-04-26 10:10 | 59.64409 | 17.91822 | 142 ft | 8 kts | 277° |
| 2026-04-26 10:10 | 59.64417 | 17.91688 | 144 ft | 9 kts | 274° |
| 2026-04-26 10:10 | 59.64412 | 17.91610 | 147 ft | 5 kts | 267° |
| 2026-04-26 10:10 | 59.64432 | 17.91582 | 147 ft | 3 kts | 357° |
| 2026-04-26 10:11 | 59.64438 | 17.91582 | 147 ft | 0 kts | 2° |
| 2026-04-26 10:11 | 59.64451 | 17.91585 | 147 ft | 3 kts | 8° |
| 2026-04-26 10:11 | 59.64453 | 17.91585 | 147 ft | 0 kts | 8° |
| 2026-04-26 10:12 | 59.64488 | 17.91596 | 147 ft | 26 kts | 9° |
| 2026-04-26 10:12 | 59.64927 | 17.91749 | 147 ft | 102 kts | 10° |
| 2026-04-26 10:12 | 59.65792 | 17.92133 | 470 ft | 134 kts | 9° |
| 2026-04-26 10:12 | 59.66713 | 17.92604 | 1270 ft | 140 kts | 11° |
| 2026-04-26 10:13 | 59.67669 | 17.93139 | 2070 ft | 148 kts | 9° |
| 2026-04-26 10:13 | 59.68677 | 17.93723 | 2914 ft | 156 kts | 11° |
| 2026-04-26 10:13 | 59.69730 | 17.94369 | 3786 ft | 159 kts | 12° |
| 2026-04-26 10:13 | 59.70776 | 17.95059 | 4672 ft | 159 kts | 12° |
| 2026-04-26 10:14 | 59.71881 | 17.95751 | 4960 ft | 171 kts | 8° |
| 2026-04-26 10:14 | 59.73054 | 17.95914 | 5091 ft | 175 kts | 351° |
| 2026-04-26 10:14 | 59.74296 | 17.95990 | 5006 ft | 182 kts | 11° |
| 2026-04-26 10:14 | 59.75387 | 17.97372 | 4929 ft | 199 kts | 43° |
| 2026-04-26 10:15 | 59.75907 | 18.00034 | 5107 ft | 219 kts | 76° |
| 2026-04-26 10:15 | 59.75876 | 18.03122 | 5863 ft | 228 kts | 86° |
| 2026-04-26 10:15 | 59.75728 | 18.06216 | 6985 ft | 226 kts | 88° |
| 2026-04-26 10:15 | 59.75568 | 18.09342 | 8035 ft | 226 kts | 88° |
| 2026-04-26 10:16 | 59.75415 | 18.12449 | 9039 ft | 228 kts | 87° |
| 2026-04-26 10:16 | 59.75319 | 18.15600 | 10041 ft | 228 kts | 83° |
| 2026-04-26 10:16 | 59.75285 | 18.18729 | 10902 ft | 229 kts | 81° |
| 2026-04-26 10:16 | 59.75269 | 18.21890 | 11760 ft | 231 kts | 80° |
| 2026-04-26 10:17 | 59.75258 | 18.25087 | 12624 ft | 233 kts | 79° |
| 2026-04-26 10:17 | 59.75246 | 18.28316 | 13490 ft | 235 kts | 79° |
| 2026-04-26 10:17 | 59.75236 | 18.31579 | 14265 ft | 238 kts | 78° |
| 2026-04-26 10:17 | 59.75225 | 18.34881 | 14956 ft | 242 kts | 77° |
| 2026-04-26 10:18 | 59.75397 | 18.38157 | 15631 ft | 232 kts | 62° |
| 2026-04-26 10:18 | 59.75842 | 18.41213 | 16379 ft | 230 kts | 57° |
| 2026-04-26 10:18 | 59.76389 | 18.44206 | 17132 ft | 229 kts | 53° |
| 2026-04-26 10:18 | 59.76991 | 18.47102 | 17867 ft | 229 kts | 51° |
| 2026-04-26 10:19 | 59.77632 | 18.49998 | 18577 ft | 230 kts | 49° |
| 2026-04-26 10:19 | 59.78288 | 18.52901 | 19193 ft | 232 kts | 49° |
| 2026-04-26 10:19 | 59.78955 | 18.55850 | 19838 ft | 235 kts | 48° |
| 2026-04-26 10:19 | 59.79619 | 18.58814 | 20475 ft | 238 kts | 48° |
| 2026-04-26 10:20 | 59.80312 | 18.61902 | 20907 ft | 250 kts | 48° |
| 2026-04-26 10:20 | 59.80797 | 18.64042 | 21121 ft | 261 kts | 48° |
| 2026-04-26 10:20 | 59.81833 | 18.68639 | 21562 ft | 284 kts | 49° |
| 2026-04-26 10:20 | 59.82645 | 18.72312 | 21881 ft | 301 kts | 50° |
| 2026-04-26 10:21 | 59.83503 | 18.76266 | 22300 ft | 317 kts | 51° |
| 2026-04-26 10:21 | 59.84382 | 18.80363 | 22641 ft | 332 kts | 52° |
| 2026-04-26 10:21 | 59.85304 | 18.84680 | 22976 ft | 346 kts | 52° |
| 2026-04-26 10:21 | 59.86258 | 18.89163 | 23293 ft | 359 kts | 52° |
| 2026-04-26 10:22 | 59.87244 | 18.93805 | 23602 ft | 372 kts | 52° |
| 2026-04-26 10:22 | 59.88268 | 18.98634 | 23861 ft | 385 kts | 53° |
| 2026-04-26 10:22 | 59.89323 | 19.03610 | 24102 ft | 397 kts | 53° |
| 2026-04-26 10:22 | 59.90414 | 19.08771 | 24328 ft | 408 kts | 54° |
| 2026-04-26 10:23 | 59.91524 | 19.14029 | 24564 ft | 419 kts | 54° |
| 2026-04-26 10:23 | 59.92658 | 19.19421 | 24875 ft | 427 kts | 54° |
| 2026-04-26 10:23 | 59.93785 | 19.24969 | 25148 ft | 441 kts | 58° |
| 2026-04-26 10:23 | 59.94636 | 19.31052 | 25354 ft | 463 kts | 66° |
| 2026-04-26 10:24 | 59.95214 | 19.37443 | 25579 ft | 476 kts | 69° |
| 2026-04-26 10:24 | 59.95705 | 19.43952 | 26072 ft | 477 kts | 70° |
| 2026-04-26 10:24 | 59.96164 | 19.50483 | 27011 ft | 468 kts | 70° |
| 2026-04-26 10:24 | 59.96604 | 19.56869 | 27962 ft | 459 kts | 70° |
| 2026-04-26 10:25 | 59.97030 | 19.63076 | 28902 ft | 450 kts | 69° |
| 2026-04-26 10:25 | 59.97452 | 19.69193 | 29727 ft | 444 kts | 69° |
| 2026-04-26 10:25 | 59.97872 | 19.75314 | 30384 ft | 441 kts | 69° |
| 2026-04-26 10:25 | 59.98290 | 19.81367 | 30783 ft | 442 kts | 70° |
| 2026-04-26 10:26 | 59.98704 | 19.87416 | 30901 ft | 443 kts | 70° |
| 2026-04-26 10:26 | 59.99119 | 19.93566 | 30911 ft | 443 kts | 70° |
| 2026-04-26 10:26 | 59.99931 | 20.05751 | 30918 ft | 444 kts | 70° |
| 2026-04-26 10:27 | 60.00727 | 20.17909 | 30943 ft | 444 kts | 70° |
| 2026-04-26 10:27 | 60.01517 | 20.30141 | 30961 ft | 442 kts | 71° |
| 2026-04-26 10:28 | 60.02286 | 20.42292 | 30926 ft | 438 kts | 71° |
| 2026-04-26 10:28 | 60.03045 | 20.54392 | 30923 ft | 438 kts | 71° |
| 2026-04-26 10:29 | 60.03788 | 20.66427 | 30914 ft | 438 kts | 71° |
| 2026-04-26 10:29 | 60.04525 | 20.78533 | 30914 ft | 438 kts | 71° |
| 2026-04-26 10:30 | 60.05246 | 20.90596 | 30895 ft | 438 kts | 71° |
| 2026-04-26 10:30 | 60.05961 | 21.02732 | 30895 ft | 438 kts | 71° |
| 2026-04-26 10:31 | 60.06661 | 21.14806 | 30895 ft | 439 kts | 73° |
| 2026-04-26 10:31 | 60.07353 | 21.26946 | 30881 ft | 439 kts | 73° |
| 2026-04-26 10:32 | 60.08030 | 21.39022 | 30884 ft | 439 kts | 73° |
| 2026-04-26 10:32 | 60.08704 | 21.51253 | 30865 ft | 439 kts | 73° |
| 2026-04-26 10:33 | 60.09361 | 21.63381 | 30867 ft | 439 kts | 73° |
| 2026-04-26 10:33 | 60.10010 | 21.75555 | 30866 ft | 440 kts | 73° |
| 2026-04-26 10:34 | 60.10648 | 21.87751 | 30864 ft | 441 kts | 75° |
| 2026-04-26 10:34 | 60.11278 | 21.99984 | 30838 ft | 441 kts | 76° |
| 2026-04-26 10:35 | 60.11894 | 22.12226 | 30826 ft | 442 kts | 76° |
| 2026-04-26 10:35 | 60.12498 | 22.24439 | 30829 ft | 442 kts | 76° |
| 2026-04-26 10:36 | 60.13095 | 22.36747 | 30823 ft | 442 kts | 76° |
| 2026-04-26 10:36 | 60.13678 | 22.48984 | 30809 ft | 442 kts | 76° |
| 2026-04-26 10:37 | 60.13962 | 22.55066 | 30671 ft | 438 kts | 77° |
| 2026-04-26 10:37 | 60.14242 | 22.61150 | 30405 ft | 429 kts | 77° |
| 2026-04-26 10:37 | 60.14505 | 22.66979 | 30213 ft | 418 kts | 77° |
| 2026-04-26 10:37 | 60.14766 | 22.72776 | 29994 ft | 408 kts | 77° |
| 2026-04-26 10:38 | 60.15017 | 22.78369 | 29635 ft | 401 kts | 77° |
| 2026-04-26 10:38 | 60.15265 | 22.83897 | 29199 ft | 397 kts | 77° |
| 2026-04-26 10:38 | 60.15507 | 22.89343 | 28751 ft | 393 kts | 77° |
| 2026-04-26 10:38 | 60.15747 | 22.94769 | 28310 ft | 389 kts | 77° |
| 2026-04-26 10:39 | 60.15984 | 23.00203 | 27843 ft | 385 kts | 77° |
| 2026-04-26 10:39 | 60.16212 | 23.05506 | 27400 ft | 382 kts | 77° |
| 2026-04-26 10:39 | 60.16436 | 23.10777 | 26971 ft | 378 kts | 77° |
| 2026-04-26 10:39 | 60.16656 | 23.15998 | 26553 ft | 375 kts | 77° |
| 2026-04-26 10:40 | 60.16875 | 23.21240 | 26133 ft | 372 kts | 77° |
| 2026-04-26 10:40 | 60.17087 | 23.26361 | 25742 ft | 369 kts | 77° |
| 2026-04-26 10:40 | 60.17296 | 23.31446 | 25377 ft | 366 kts | 80° |
| 2026-04-26 10:40 | 60.17502 | 23.36515 | 24985 ft | 363 kts | 79° |
| 2026-04-26 10:41 | 60.17705 | 23.41543 | 24603 ft | 359 kts | 81° |
| 2026-04-26 10:41 | 60.17907 | 23.46573 | 24127 ft | 359 kts | 81° |
| 2026-04-26 10:41 | 60.18106 | 23.51559 | 23553 ft | 363 kts | 80° |
| 2026-04-26 10:41 | 60.18305 | 23.56649 | 22850 ft | 361 kts | 79° |
| 2026-04-26 10:42 | 60.18497 | 23.61615 | 22117 ft | 355 kts | 81° |
| 2026-04-26 10:42 | 60.18622 | 23.64888 | 21662 ft | 352 kts | 79° |
| 2026-04-26 10:42 | 60.18867 | 23.71373 | 20747 ft | 345 kts | 79° |
| 2026-04-26 10:42 | 60.19048 | 23.76137 | 20086 ft | 341 kts | 82° |
| 2026-04-26 10:43 | 60.19221 | 23.80808 | 19436 ft | 336 kts | 80° |
| 2026-04-26 10:43 | 60.19391 | 23.85440 | 18803 ft | 332 kts | 81° |
| 2026-04-26 10:43 | 60.19560 | 23.90044 | 18161 ft | 328 kts | 79° |
| 2026-04-26 10:43 | 60.19727 | 23.94645 | 17449 ft | 324 kts | 79° |
| 2026-04-26 10:44 | 60.19886 | 23.99126 | 16752 ft | 320 kts | 78° |
| 2026-04-26 10:44 | 60.20044 | 24.03551 | 16065 ft | 317 kts | 81° |
| 2026-04-26 10:44 | 60.20198 | 24.07925 | 15411 ft | 314 kts | 82° |
| 2026-04-26 10:44 | 60.20350 | 24.12295 | 14745 ft | 311 kts | 82° |
| 2026-04-26 10:45 | 60.20498 | 24.16616 | 14106 ft | 308 kts | 82° |
| 2026-04-26 10:45 | 60.20642 | 24.20861 | 13589 ft | 302 kts | 82° |
| 2026-04-26 10:45 | 60.20784 | 24.25061 | 13143 ft | 296 kts | 80° |
| 2026-04-26 10:45 | 60.20925 | 24.29166 | 12802 ft | 298 kts | 82° |
| 2026-04-26 10:46 | 60.21064 | 24.33301 | 12466 ft | 298 kts | 82° |
| 2026-04-26 10:46 | 60.21197 | 24.37450 | 12138 ft | 295 kts | 79° |
| 2026-04-26 10:46 | 60.21330 | 24.41539 | 11803 ft | 293 kts | 79° |
| 2026-04-26 10:46 | 60.21463 | 24.45665 | 11475 ft | 292 kts | 80° |
| 2026-04-26 10:47 | 60.21594 | 24.49737 | 11149 ft | 291 kts | 80° |
| 2026-04-26 10:47 | 60.21722 | 24.53771 | 10783 ft | 290 kts | 79° |
| 2026-04-26 10:47 | 60.21850 | 24.57816 | 10188 ft | 293 kts | 79° |
| 2026-04-26 10:47 | 60.21977 | 24.61893 | 9516 ft | 291 kts | 79° |
| 2026-04-26 10:48 | 60.22101 | 24.65939 | 8785 ft | 289 kts | 79° |
| 2026-04-26 10:48 | 60.22222 | 24.69966 | 8093 ft | 287 kts | 79° |
| 2026-04-26 10:48 | 60.22340 | 24.73924 | 7515 ft | 283 kts | 79° |
| 2026-04-26 10:48 | 60.22457 | 24.77877 | 6961 ft | 277 kts | 79° |
| 2026-04-26 10:49 | 60.22565 | 24.81631 | 6699 ft | 264 kts | 78° |
| 2026-04-26 10:49 | 60.22667 | 24.85245 | 6454 ft | 250 kts | 78° |
| 2026-04-26 10:49 | 60.22763 | 24.88661 | 6020 ft | 240 kts | 79° |
| 2026-04-26 10:49 | 60.22861 | 24.91993 | 5350 ft | 239 kts | 77° |
| 2026-04-26 10:50 | 60.22959 | 24.95310 | 4688 ft | 238 kts | 77° |
| 2026-04-26 10:50 | 60.23022 | 24.97499 | 4316 ft | 235 kts | 76° |
| 2026-04-26 10:50 | 60.23132 | 25.01694 | 3983 ft | 213 kts | 76° |
| 2026-04-26 10:50 | 60.23204 | 25.04554 | 3770 ft | 199 kts | 75° |
| 2026-04-26 10:51 | 60.23199 | 25.07284 | 3592 ft | 200 kts | 88° |
| 2026-04-26 10:51 | 60.21124 | 25.11016 | 3171 ft | 224 kts | 181° |
| 2026-04-26 10:51 | 60.19735 | 25.10080 | 2885 ft | 204 kts | 232° |
| 2026-04-26 10:52 | 60.19226 | 25.08591 | 2678 ft | 181 kts | 266° |
| 2026-04-26 10:52 | 60.19153 | 25.05444 | 2315 ft | 169 kts | 284° |
| 2026-04-26 10:52 | 60.19179 | 25.03861 | 2120 ft | 170 kts | 283° |
| 2026-04-26 10:52 | 60.19167 | 25.01487 | 1840 ft | 170 kts | 280° |
| 2026-04-26 10:53 | 60.19120 | 24.99131 | 1574 ft | 169 kts | 279° |
| 2026-04-26 10:53 | 60.19111 | 24.96756 | 1611 ft | 166 kts | 288° |
| 2026-04-26 10:53 | 60.19157 | 24.96175 | 1630 ft | 162 kts | 293° |
| 2026-04-26 10:54 | 60.20094 | 24.93522 | 1676 ft | 146 kts | 335° |
| 2026-04-26 10:54 | 60.21068 | 24.93081 | 1674 ft | 144 kts | 0° |
| 2026-04-26 10:54 | 60.22028 | 24.93767 | 1668 ft | 154 kts | 27° |
| 2026-04-26 10:54 | 60.22696 | 24.95553 | 1660 ft | 174 kts | 58° |
| 2026-04-26 10:55 | 60.22949 | 24.98034 | 1664 ft | 183 kts | 71° |
| 2026-04-26 10:55 | 60.23063 | 25.00585 | 1649 ft | 185 kts | 73° |
| 2026-04-26 10:55 | 60.23158 | 25.03129 | 1663 ft | 174 kts | 73° |
| 2026-04-26 10:55 | 60.23251 | 25.05489 | 1669 ft | 164 kts | 70° |
| 2026-04-26 10:56 | 60.23572 | 25.07547 | 1663 ft | 146 kts | 45° |
| 2026-04-26 10:56 | 60.24271 | 25.08825 | 1669 ft | 131 kts | 18° |
| 2026-04-26 10:56 | 60.25121 | 25.09107 | 1671 ft | 125 kts | 347° |
| 2026-04-26 10:56 | 60.25752 | 25.07922 | 1685 ft | 139 kts | 302° |
| 2026-04-26 10:57 | 60.25966 | 25.05928 | 1754 ft | 148 kts | 289° |
| 2026-04-26 10:57 | 60.26048 | 25.03864 | 1804 ft | 150 kts | 286° |
| 2026-04-26 10:57 | 60.25926 | 25.01707 | 1727 ft | 159 kts | 269° |
| 2026-04-26 10:57 | 60.25595 | 24.99582 | 1693 ft | 162 kts | 265° |
| 2026-04-26 10:58 | 60.24961 | 24.97574 | 1688 ft | 184 kts | 229° |
| 2026-04-26 10:58 | 60.23721 | 24.96703 | 1691 ft | 200 kts | 184° |
| 2026-04-26 10:58 | 60.22408 | 24.97507 | 1701 ft | 199 kts | 146° |
| 2026-04-26 10:58 | 60.21431 | 24.99368 | 1686 ft | 187 kts | 109° |
| 2026-04-26 10:59 | 60.21245 | 25.01702 | 1688 ft | 159 kts | 63° |
| 2026-04-26 10:59 | 60.21639 | 25.03682 | 1550 ft | 142 kts | 43° |
| 2026-04-26 10:59 | 60.22300 | 25.04757 | 1316 ft | 107 kts | 11° |
| 2026-04-26 10:59 | 60.22945 | 25.05148 | 1299 ft | 93 kts | 6° |
| 2026-04-26 11:00 | 60.23616 | 25.05425 | 1400 ft | 103 kts | 4° |
| 2026-04-26 11:00 | 60.24317 | 25.05768 | 1161 ft | 105 kts | 8° |
| 2026-04-26 11:00 | 60.25046 | 25.06112 | 945 ft | 106 kts | 2° |
| 2026-04-26 11:00 | 60.25727 | 25.05654 | 1133 ft | 113 kts | 314° |
| 2026-04-26 11:01 | 60.26204 | 25.04371 | 1224 ft | 112 kts | 316° |
| 2026-04-26 11:01 | 60.26702 | 25.03222 | 1257 ft | 107 kts | 327° |
| 2026-04-26 11:01 | 60.27311 | 25.02404 | 1277 ft | 103 kts | 335° |
| 2026-04-26 11:01 | 60.27898 | 25.01759 | 1130 ft | 92 kts | 336° |
| 2026-04-26 11:02 | 60.28472 | 25.01160 | 862 ft | 93 kts | 335° |
| 2026-04-26 11:02 | 60.29041 | 25.00560 | 716 ft | 94 kts | 333° |
| 2026-04-26 11:02 | 60.29615 | 24.99976 | 573 ft | 96 kts | 333° |
| 2026-04-26 11:02 | 60.30205 | 24.99356 | 376 ft | 97 kts | 332° |
| 2026-04-26 11:03 | 60.30813 | 24.98707 | 238 ft | 97 kts | 332° |
| 2026-04-26 11:03 | 60.31379 | 24.98146 | 198 ft | 83 kts | 331° |
| 2026-04-26 11:03 | 60.31841 | 24.97666 | 177 ft | 68 kts | 333° |
| 2026-04-26 11:03 | 60.32213 | 24.97287 | 173 ft | 37 kts | 333° |
| 2026-04-26 11:04 | 60.32373 | 24.97098 | 173 ft | 21 kts | 307° |
| 2026-04-26 11:04 | 60.32367 | 24.96920 | 172 ft | 11 kts | 232° |
| 2026-04-26 11:04 | 60.32351 | 24.96883 | 172 ft | 1 kts | 229° |
| 2026-04-26 11:04 | 60.32347 | 24.96873 | 172 ft | 1 kts | 229° |
| 2026-04-26 11:05 | 60.32315 | 24.96803 | 171 ft | 13 kts | 228° |
| 2026-04-26 11:05 | 60.32247 | 24.96737 | 171 ft | 8 kts | 160° |
| 2026-04-26 11:05 | 60.32190 | 24.96798 | 172 ft | 12 kts | 150° |
| 2026-04-26 11:05 | 60.32103 | 24.96896 | 174 ft | 16 kts | 150° |
| 2026-04-26 11:06 | 60.32005 | 24.97007 | 175 ft | 16 kts | 150° |
| 2026-04-26 11:06 | 60.31908 | 24.97107 | 177 ft | 16 kts | 154° |
| 2026-04-26 11:06 | 60.31814 | 24.97206 | 178 ft | 15 kts | 152° |
| 2026-04-26 11:06 | 60.31721 | 24.97301 | 179 ft | 15 kts | 154° |
| 2026-04-26 11:07 | 60.31634 | 24.97391 | 180 ft | 14 kts | 152° |
| 2026-04-26 11:07 | 60.31590 | 24.97425 | 180 ft | 3 kts | 192° |
| 2026-04-26 11:07 | 60.31580 | 24.97406 | 180 ft | 2 kts | 232° |
| 2026-04-26 11:07 | 60.31566 | 24.97357 | 180 ft | 6 kts | 244° |